Time;durP1;ratioP1;P1;durP2;ratioP2;P2;SDS_P1;SDS_P2;PMS_P1;PMS_P2;Temp;Humidity;BMP_temperature;BMP_pressure;BME280_temperature;BME280_humidity;BME280_pressure;Samples;Min_cycle;Max_cycle;Signal;HPM_P1;HPM_P2
2021/03/17 00:00:39;;;;;;;9.48;5.15;;;5.60;99.90;;;;;;5015816;28;20033;-64
2021/03/17 00:03:06;;;;;;;8.88;4.95;;;5.70;99.90;;;;;;5016115;28;20030;-64
2021/03/17 00:05:35;;;;;;;6.93;4.32;;;5.70;99.90;;;;;;5014304;28;20034;-64
2021/03/17 00:08:02;;;;;;;10.27;5.53;;;5.80;99.90;;;;;;5014379;28;20026;-64
2021/03/17 00:10:42;;;;;;;7.90;5.32;;;5.90;99.90;;;;;;5015817;28;20116;-64
2021/03/17 00:13:07;;;;;;;7.78;4.82;;;5.90;99.90;;;;;;5015681;28;20515;-64
2021/03/17 00:15:37;;;;;;;9.07;5.03;;;5.90;99.90;;;;;;5014021;28;20117;-64
2021/03/17 00:18:04;;;;;;;7.10;4.57;;;5.80;99.90;;;;;;5014341;28;20038;-63
2021/03/17 00:20:31;;;;;;;9.15;5.18;;;5.90;99.90;;;;;;5014274;28;20029;-64
2021/03/17 00:22:57;;;;;;;8.50;4.57;;;6.00;99.90;;;;;;5014150;28;20072;-64
2021/03/17 00:25:28;;;;;;;9.40;4.90;;;6.10;99.90;;;;;;5014134;28;20486;-64
2021/03/17 00:27:55;;;;;;;11.23;5.03;;;6.10;99.90;;;;;;5015468;28;20030;-64
2021/03/17 00:30:21;;;;;;;9.63;5.28;;;6.00;99.90;;;;;;5014280;28;20108;-64
2021/03/17 00:32:47;;;;;;;9.60;5.10;;;6.00;99.90;;;;;;5015312;28;20038;-63
2021/03/17 00:35:13;;;;;;;12.05;5.07;;;6.00;99.90;;;;;;5014973;28;20042;-64
2021/03/17 00:37:39;;;;;;;11.77;5.85;;;6.00;99.90;;;;;;5015264;28;20520;-64
2021/03/17 00:40:06;;;;;;;10.50;5.38;;;6.00;99.90;;;;;;5014247;28;20062;-64
2021/03/17 00:42:53;;;;;;;8.57;5.20;;;6.00;99.90;;;;;;5015178;28;20045;-64
2021/03/17 00:45:20;;;;;;;13.25;6.72;;;6.00;99.90;;;;;;5015070;28;20022;-64
2021/03/17 00:47:45;;;;;;;11.80;6.15;;;6.10;99.90;;;;;;5014715;28;20030;-64
2021/03/17 00:50:15;;;;;;;11.55;6.00;;;6.10;99.90;;;;;;5015042;28;20117;-64
2021/03/17 00:52:42;;;;;;;10.85;5.72;;;6.00;99.90;;;;;;5014980;28;20133;-64
2021/03/17 00:55:11;;;;;;;10.45;5.45;;;6.00;99.90;;;;;;5013801;28;20076;-64
2021/03/17 00:57:36;;;;;;;10.07;5.18;;;6.00;99.90;;;;;;5013629;28;20120;-64
2021/03/17 01:00:05;;;;;;;9.48;4.80;;;6.00;99.90;;;;;;5013742;28;20428;-64
2021/03/17 01:02:31;;;;;;;8.13;4.80;;;6.00;99.90;;;;;;5014857;28;20544;-64
2021/03/17 01:05:24;;;;;;;10.52;5.35;;;5.90;99.90;;;;;;5014762;28;20037;-63
2021/03/17 01:07:50;;;;;;;7.30;4.68;;;5.90;99.90;;;;;;5014701;28;20036;-64
2021/03/17 01:10:22;;;;;;;10.20;5.78;;;5.90;99.90;;;;;;5013454;28;20105;-64
2021/03/17 01:12:48;;;;;;;8.95;5.50;;;5.80;99.90;;;;;;5014680;28;20026;-64
2021/03/17 01:15:18;;;;;;;12.63;5.78;;;5.70;99.90;;;;;;5014688;28;20065;-64
2021/03/17 01:17:45;;;;;;;8.77;5.45;;;5.80;99.90;;;;;;5013158;28;20037;-64
2021/03/17 01:20:12;;;;;;;12.10;6.45;;;5.80;99.90;;;;;;4996832;28;20049;-64
2021/03/17 01:22:38;;;;;;;11.35;6.15;;;5.80;99.90;;;;;;5012867;28;20120;-64
2021/03/17 01:25:13;;;;;;;10.75;6.45;;;5.80;99.90;;;;;;5014430;28;20138;-64
2021/03/17 01:27:39;;;;;;;9.90;5.60;;;5.80;99.90;;;;;;5014406;28;20506;-64
2021/03/17 01:30:06;;;;;;;11.18;6.47;;;5.80;99.90;;;;;;5014308;28;20057;-64
2021/03/17 01:32:34;;;;;;;10.80;6.05;;;5.80;99.90;;;;;;5014312;28;20045;-64
2021/03/17 01:35:00;;;;;;;10.20;5.97;;;5.80;99.90;;;;;;5013786;28;20571;-64
2021/03/17 01:37:25;;;;;;;11.93;6.30;;;5.80;99.90;;;;;;5013814;28;20092;-63
2021/03/17 01:39:51;;;;;;;9.40;5.93;;;5.70;99.90;;;;;;5014088;28;20029;-63
2021/03/17 01:42:17;;;;;;;11.38;5.78;;;5.70;99.90;;;;;;5014116;28;20037;-62
2021/03/17 01:44:43;;;;;;;10.02;5.80;;;5.80;99.90;;;;;;5013751;28;20101;-62
2021/03/17 01:47:08;;;;;;;11.20;6.40;;;5.70;99.90;;;;;;5013927;28;20437;-62
2021/03/17 01:49:34;;;;;;;12.32;5.93;;;5.80;99.90;;;;;;5013583;28;20026;-63
2021/03/17 01:52:01;;;;;;;11.50;6.15;;;5.80;99.90;;;;;;5012498;28;20041;-62
2021/03/17 01:54:26;;;;;;;11.38;5.85;;;5.80;99.90;;;;;;5014003;28;20070;-63
2021/03/17 01:56:52;;;;;;;10.60;6.43;;;5.80;99.90;;;;;;5012258;28;20368;-63
2021/03/17 01:59:19;;;;;;;9.73;5.90;;;5.70;99.90;;;;;;5012402;28;20030;-63
2021/03/17 02:01:45;;;;;;;11.02;6.25;;;5.70;99.90;;;;;;5013389;28;20506;-62
2021/03/17 02:04:11;;;;;;;13.60;7.15;;;5.70;99.90;;;;;;5013759;28;20037;-63
2021/03/17 02:06:37;;;;;;;10.77;6.05;;;5.70;99.90;;;;;;5013567;28;20076;-63
2021/03/17 02:09:03;;;;;;;13.23;6.70;;;5.60;99.90;;;;;;5013819;28;20038;-63
2021/03/17 02:11:29;;;;;;;13.02;6.50;;;5.60;99.90;;;;;;5012328;28;20029;-63
2021/03/17 02:14:03;;;;;;;15.40;6.63;;;5.60;99.90;;;;;;5013753;28;20490;-63
2021/03/17 02:16:58;;;;;;;15.60;7.88;;;5.60;99.90;;;;;;5011987;28;20026;-62
2021/03/17 02:19:53;;;;;;;12.88;7.32;;;5.50;99.90;;;;;;5012368;28;20026;-62
2021/03/17 02:22:28;;;;;;;14.82;8.13;;;5.50;99.90;;;;;;4995596;28;20049;-62
2021/03/17 02:25:28;;;;;;;13.98;7.28;;;5.40;99.90;;;;;;5011796;28;20180;-63
2021/03/17 02:28:50;;;;;;;13.57;7.53;;;5.40;99.90;;;;;;5012099;28;20101;-63
2021/03/17 02:31:54;;;;;;;12.45;7.82;;;5.50;99.90;;;;;;5013337;28;20037;-63
2021/03/17 02:34:26;;;;;;;11.70;6.68;;;5.40;99.90;;;;;;5012984;28;20121;-62
2021/03/17 02:37:04;;;;;;;14.73;6.88;;;5.50;99.90;;;;;;5011872;28;20542;-62
2021/03/17 02:39:53;;;;;;;11.18;6.13;;;5.50;99.90;;;;;;5011785;28;20551;-62
2021/03/17 02:42:30;;;;;;;9.95;5.93;;;5.50;99.90;;;;;;5012114;28;20062;-62
2021/03/17 02:45:08;;;;;;;11.27;6.50;;;5.40;99.90;;;;;;5011863;28;20156;-63
2021/03/17 02:47:47;;;;;;;11.27;5.88;;;5.50;99.90;;;;;;5011460;28;20057;-62
2021/03/17 02:50:14;;;;;;;13.00;6.18;;;5.50;99.90;;;;;;5011936;28;20030;-62
2021/03/17 02:52:45;;;;;;;10.02;5.63;;;5.50;99.90;;;;;;5012819;28;20034;-63
2021/03/17 02:55:13;;;;;;;10.77;5.35;;;5.40;99.90;;;;;;4995402;28;20021;-63
2021/03/17 02:57:41;;;;;;;10.73;6.15;;;5.50;99.90;;;;;;5011290;28;20033;-63
2021/03/17 03:00:12;;;;;;;11.57;5.45;;;5.40;99.90;;;;;;5011735;28;20033;-63
2021/03/17 03:02:41;;;;;;;12.45;5.30;;;5.40;99.90;;;;;;5012420;28;20065;-63
2021/03/17 03:05:11;;;;;;;10.25;5.95;;;5.40;99.90;;;;;;5011439;28;20050;-63
2021/03/17 03:07:39;;;;;;;9.18;5.88;;;5.50;99.90;;;;;;5011558;28;20391;-63
2021/03/17 03:10:10;;;;;;;10.88;5.70;;;5.40;99.90;;;;;;4994932;28;20044;-63
2021/03/17 03:12:37;;;;;;;12.32;6.18;;;5.40;99.90;;;;;;5012417;28;20116;-63
2021/03/17 03:15:06;;;;;;;11.43;5.68;;;5.30;99.90;;;;;;5011072;28;20613;-63
2021/03/17 03:17:35;;;;;;;9.75;6.13;;;5.40;99.90;;;;;;5011086;28;20037;-63
2021/03/17 03:20:08;;;;;;;8.55;5.57;;;5.30;99.90;;;;;;5012231;28;20060;-63
2021/03/17 03:22:36;;;;;;;10.95;6.22;;;5.30;99.90;;;;;;5012620;28;20037;-63
2021/03/17 03:25:02;;;;;;;9.27;5.85;;;5.30;99.90;;;;;;5011403;28;20038;-63
2021/03/17 03:27:28;;;;;;;14.25;6.70;;;5.40;99.90;;;;;;5012302;28;20506;-62
2021/03/17 03:29:56;;;;;;;11.52;6.47;;;5.30;99.90;;;;;;5011271;28;20022;-63
2021/03/17 03:32:22;;;;;;;10.43;5.97;;;5.40;99.90;;;;;;5012554;28;20069;-63
2021/03/17 03:34:48;;;;;;;11.82;6.18;;;5.30;99.90;;;;;;5010661;28;20560;-63
2021/03/17 03:37:16;;;;;;;11.02;5.97;;;5.20;99.90;;;;;;5011002;28;20105;-63
2021/03/17 03:39:42;;;;;;;13.38;6.60;;;5.20;99.90;;;;;;5011011;28;20026;-63
2021/03/17 03:42:08;;;;;;;13.27;6.30;;;5.20;99.90;;;;;;5010774;28;20099;-63
2021/03/17 03:44:35;;;;;;;11.48;6.32;;;5.10;99.90;;;;;;5012489;28;20117;-63
2021/03/17 03:47:01;;;;;;;10.95;6.78;;;5.00;99.90;;;;;;5011947;28;20045;-63
2021/03/17 03:49:26;;;;;;;12.77;6.30;;;5.10;99.90;;;;;;5012428;28;20034;-63
2021/03/17 03:52:22;;;;;;;12.75;6.82;;;5.10;99.90;;;;;;5012045;28;20117;-63
2021/03/17 03:55:27;;;;;;;13.32;8.10;;;5.10;99.90;;;;;;5011192;28;20080;-63
2021/03/17 03:58:00;;;;;;;19.30;8.43;;;5.10;99.90;;;;;;4981548;28;20103;-63
2021/03/17 04:00:27;;;;;;;18.08;8.25;;;5.10;99.90;;;;;;5010949;28;20033;-63
2021/03/17 04:02:55;;;;;;;22.05;9.27;;;5.10;99.90;;;;;;5011749;28;20431;-63
2021/03/17 04:05:33;;;;;;;18.80;8.25;;;5.00;99.90;;;;;;5010898;28;20030;-63
2021/03/17 04:08:06;;;;;;;18.20;8.90;;;5.10;99.90;;;;;;5010857;28;20065;-63
2021/03/17 04:10:33;;;;;;;19.17;9.52;;;5.00;99.90;;;;;;5012019;28;20064;-63
2021/03/17 04:13:03;;;;;;;17.23;9.60;;;5.00;99.90;;;;;;5010522;28;20049;-63
2021/03/17 04:15:30;;;;;;;17.88;8.30;;;5.00;99.90;;;;;;5013705;28;20045;-63
2021/03/17 04:18:05;;;;;;;19.77;8.88;;;5.00;99.90;;;;;;5015505;28;20034;-64
2021/03/17 04:20:37;;;;;;;14.43;8.38;;;5.00;99.90;;;;;;5015779;28;20030;-64
2021/03/17 04:23:06;;;;;;;19.63;8.80;;;5.00;99.90;;;;;;5014348;28;20068;-64
2021/03/17 04:25:33;;;;;;;17.30;8.20;;;5.00;99.90;;;;;;4998272;28;20037;-63
2021/03/17 04:28:01;;;;;;;16.92;8.23;;;5.00;99.90;;;;;;4997545;28;20088;-63
2021/03/17 04:30:27;;;;;;;19.52;8.55;;;5.00;99.90;;;;;;5014410;28;20030;-64
2021/03/17 04:32:55;;;;;;;21.23;8.55;;;5.00;99.90;;;;;;5013982;28;20030;-63
2021/03/17 04:35:21;;;;;;;19.90;9.60;;;5.00;99.90;;;;;;5013848;28;20437;-64
2021/03/17 04:37:51;;;;;;;19.35;8.95;;;5.00;99.90;;;;;;5014789;28;20111;-63
2021/03/17 04:40:18;;;;;;;17.88;9.68;;;5.00;99.90;;;;;;5014186;28;20030;-64
2021/03/17 04:42:45;;;;;;;18.98;9.05;;;4.90;99.90;;;;;;5014155;28;20034;-63
2021/03/17 04:45:13;;;;;;;19.95;9.70;;;4.90;99.90;;;;;;5014897;28;20049;-63
2021/03/17 04:47:45;;;;;;;18.73;9.15;;;4.90;99.90;;;;;;5015008;28;20041;-63
2021/03/17 04:50:17;;;;;;;21.15;8.85;;;4.90;99.90;;;;;;5010973;28;20482;-63
2021/03/17 04:52:45;;;;;;;19.83;9.40;;;4.80;99.90;;;;;;4997190;28;20042;-64
2021/03/17 04:55:14;;;;;;;20.42;10.02;;;4.90;99.90;;;;;;4996767;28;20018;-64
2021/03/17 04:57:43;;;;;;;19.45;9.90;;;4.80;99.90;;;;;;5003727;28;20628;-63
2021/03/17 05:00:13;;;;;;;23.63;10.10;;;4.80;99.90;;;;;;5014505;28;20038;-63
2021/03/17 05:02:44;;;;;;;20.87;9.90;;;4.80;99.90;;;;;;5014557;28;20552;-64
2021/03/17 05:05:14;;;;;;;21.60;10.00;;;4.90;99.90;;;;;;5009583;28;20635;-64
2021/03/17 05:07:44;;;;;;;22.83;9.90;;;4.90;99.90;;;;;;4997210;28;20038;-63
2021/03/17 05:10:12;;;;;;;20.77;10.23;;;4.90;99.90;;;;;;5024200;28;20044;-64
2021/03/17 05:12:39;;;;;;;20.42;10.13;;;4.80;99.90;;;;;;5014765;28;20111;-64
2021/03/17 05:15:07;;;;;;;19.13;9.05;;;4.80;99.90;;;;;;5014460;28;20040;-64
2021/03/17 05:17:44;;;;;;;22.77;10.20;;;4.70;99.90;;;;;;5014406;28;20503;-65
2021/03/17 05:20:15;;;;;;;22.17;10.48;;;4.80;99.90;;;;;;5006842;28;20390;-64
2021/03/17 05:22:51;;;;;;;20.88;9.85;;;4.80;99.90;;;;;;5014405;28;20032;-64
2021/03/17 05:25:23;;;;;;;28.50;11.77;;;4.80;99.90;;;;;;5013951;28;20133;-64
2021/03/17 05:27:55;;;;;;;20.38;9.90;;;4.80;99.90;;;;;;4980467;28;20072;-63
2021/03/17 05:30:24;;;;;;;20.05;10.35;;;4.70;99.90;;;;;;4998712;28;20052;-63
2021/03/17 05:32:53;;;;;;;24.05;10.80;;;4.80;99.90;;;;;;5008124;28;20429;-65
2021/03/17 05:35:19;;;;;;;22.05;10.18;;;4.80;99.90;;;;;;5006661;28;20100;-65
2021/03/17 05:37:46;;;;;;;22.85;10.80;;;4.80;99.90;;;;;;5013928;28;20045;-62
2021/03/17 05:40:16;;;;;;;22.73;10.38;;;4.80;99.90;;;;;;5013915;28;20034;-63
2021/03/17 05:42:44;;;;;;;27.27;12.48;;;4.90;99.90;;;;;;5012934;28;20037;-64
2021/03/17 05:45:21;;;;;;;25.70;11.75;;;4.90;99.90;;;;;;5013730;28;20030;-63
2021/03/17 05:47:50;;;;;;;26.90;10.93;;;4.90;99.90;;;;;;5012502;28;20041;-65
2021/03/17 05:50:20;;;;;;;27.15;11.70;;;4.90;99.90;;;;;;5013691;28;20030;-66
2021/03/17 05:52:46;;;;;;;21.83;10.95;;;4.90;99.90;;;;;;5006438;28;20041;-65
2021/03/17 05:55:14;;;;;;;25.15;11.70;;;4.90;99.90;;;;;;5013556;28;20028;-64
2021/03/17 05:57:44;;;;;;;25.42;11.52;;;4.90;99.90;;;;;;5013401;28;20033;-65
2021/03/17 06:00:16;;;;;;;25.02;11.90;;;5.00;99.90;;;;;;5013658;28;20056;-65
2021/03/17 06:02:42;;;;;;;28.08;12.38;;;4.90;99.90;;;;;;5013852;28;20029;-66
2021/03/17 06:05:12;;;;;;;25.88;12.30;;;5.00;99.90;;;;;;5013461;28;20037;-65
2021/03/17 06:08:04;;;;;;;26.15;12.05;;;4.90;99.90;;;;;;5013549;28;20041;-65
2021/03/17 06:10:31;;;;;;;26.92;11.88;;;5.00;99.90;;;;;;5013554;28;20037;-66
2021/03/17 06:13:09;;;;;;;27.85;12.35;;;5.00;99.90;;;;;;5012384;28;20029;-66
2021/03/17 06:15:38;;;;;;;29.42;12.52;;;4.90;99.90;;;;;;5013462;28;20060;-66
2021/03/17 06:18:27;;;;;;;29.30;12.93;;;4.90;99.90;;;;;;5013043;28;20068;-66
2021/03/17 06:20:58;;;;;;;27.27;11.60;;;4.90;99.90;;;;;;4991223;28;20038;-67
2021/03/17 06:23:24;;;;;;;30.98;12.73;;;5.00;99.90;;;;;;5012297;28;20047;-67
2021/03/17 06:25:51;;;;;;;29.17;13.15;;;5.10;99.90;;;;;;5012434;28;20046;-66
2021/03/17 06:28:17;;;;;;;27.15;12.32;;;5.10;99.90;;;;;;5012187;28;20042;-66
2021/03/17 06:30:46;;;;;;;29.63;13.68;;;5.10;99.90;;;;;;5011087;28;20368;-66
2021/03/17 06:33:12;;;;;;;29.23;12.27;;;5.10;99.90;;;;;;5012432;28;20502;-66
2021/03/17 06:35:38;;;;;;;25.15;12.10;;;5.10;99.90;;;;;;5012347;28;20049;-66
2021/03/17 06:38:04;;;;;;;28.67;13.30;;;5.10;99.90;;;;;;5011880;28;20034;-66
2021/03/17 06:40:36;;;;;;;28.52;12.85;;;5.10;99.90;;;;;;5012575;28;20040;-65
2021/03/17 06:43:10;;;;;;;24.48;11.80;;;5.10;99.90;;;;;;5012364;28;20030;-66
2021/03/17 06:45:48;;;;;;;30.60;13.38;;;5.10;99.90;;;;;;5011413;28;20113;-66
2021/03/17 06:48:29;;;;;;;28.30;13.35;;;5.10;99.90;;;;;;5011509;28;20040;-67
2021/03/17 06:51:16;;;;;;;27.30;13.20;;;5.10;99.90;;;;;;5012882;28;20483;-67
2021/03/17 06:53:49;;;;;;;32.95;13.70;;;5.20;99.90;;;;;;5015382;28;20437;-67
2021/03/17 06:56:32;;;;;;;27.17;12.68;;;5.20;99.90;;;;;;5012664;28;20507;-67
2021/03/17 06:59:01;;;;;;;23.60;11.75;;;5.20;99.90;;;;;;5012748;28;20422;-66
2021/03/17 07:01:46;;;;;;;27.70;12.88;;;5.30;99.90;;;;;;5012661;28;20506;-66
2021/03/17 07:04:20;;;;;;;25.85;12.20;;;5.30;99.90;;;;;;5012628;28;20046;-67
2021/03/17 07:06:49;;;;;;;22.30;11.32;;;5.30;99.90;;;;;;5012611;28;20030;-66
2021/03/17 07:09:28;;;;;;;26.95;11.82;;;5.30;99.90;;;;;;4995156;28;20022;-67
2021/03/17 07:12:09;;;;;;;21.75;10.50;;;5.30;99.90;;;;;;5012592;28;20164;-67
2021/03/17 07:14:44;;;;;;;21.75;11.13;;;5.40;99.90;;;;;;5012542;28;20117;-66
2021/03/17 07:17:30;;;;;;;22.38;10.00;;;5.40;99.90;;;;;;5012044;28;20086;-67
2021/03/17 07:19:56;;;;;;;21.98;10.27;;;5.50;99.90;;;;;;5011749;28;20080;-67
2021/03/17 07:22:24;;;;;;;18.77;9.68;;;5.60;99.90;;;;;;5012506;28;20038;-67
2021/03/17 07:25:05;;;;;;;21.00;10.18;;;5.70;99.90;;;;;;4979007;28;20072;-67
2021/03/17 07:27:33;;;;;;;19.38;10.20;;;5.80;99.90;;;;;;4978821;28;20038;-67
2021/03/17 07:30:02;;;;;;;18.10;8.30;;;5.80;99.90;;;;;;4994879;28;20386;-67
2021/03/17 07:32:57;;;;;;;18.70;8.77;;;5.80;99.90;;;;;;5012320;28;20046;-66
2021/03/17 07:35:35;;;;;;;18.15;7.90;;;5.90;99.90;;;;;;5011925;28;20081;-66
2021/03/17 07:38:13;;;;;;;15.52;8.40;;;5.90;99.90;;;;;;5012148;28;20077;-67
2021/03/17 07:40:45;;;;;;;18.83;7.97;;;5.90;99.90;;;;;;5012345;28;20026;-67
2021/03/17 07:43:13;;;;;;;17.60;9.15;;;6.10;99.90;;;;;;5012319;28;20049;-67
2021/03/17 07:45:40;;;;;;;17.77;7.63;;;6.20;99.90;;;;;;5012225;28;20124;-66
2021/03/17 07:48:09;;;;;;;15.18;8.85;;;6.20;99.90;;;;;;5012838;28;20026;-67
2021/03/17 07:50:38;;;;;;;21.33;8.90;;;6.20;99.90;;;;;;5015900;28;20037;-67
2021/03/17 07:53:29;;;;;;;16.52;7.43;;;6.30;99.90;;;;;;5015928;28;20095;-67
2021/03/17 07:55:58;;;;;;;16.48;8.43;;;6.40;99.90;;;;;;5000741;28;20049;-67
2021/03/17 07:58:24;;;;;;;14.77;7.78;;;6.50;99.90;;;;;;5015779;28;20045;-67
2021/03/17 08:00:52;;;;;;;17.70;7.32;;;6.60;99.90;;;;;;4998330;28;20037;-66
2021/03/17 08:03:19;;;;;;;14.68;7.63;;;6.50;99.90;;;;;;4998236;28;20033;-67
2021/03/17 08:05:49;;;;;;;13.20;6.93;;;6.70;99.90;;;;;;4982213;28;20032;-66
2021/03/17 08:08:16;;;;;;;13.07;6.43;;;6.80;99.90;;;;;;4998180;28;20024;-66
2021/03/17 08:10:45;;;;;;;12.35;6.70;;;6.90;99.90;;;;;;4981696;28;20030;-66
2021/03/17 08:13:15;;;;;;;11.63;6.53;;;6.90;99.90;;;;;;5015718;28;20037;-67
2021/03/17 08:15:44;;;;;;;15.93;7.82;;;6.90;99.90;;;;;;4998168;28;20030;-67
2021/03/17 08:18:32;;;;;;;14.85;7.72;;;7.00;99.90;;;;;;4997823;28;20038;-67
2021/03/17 08:20:59;;;;;;;13.85;7.57;;;7.10;99.90;;;;;;4997593;28;20194;-67
2021/03/17 08:23:50;;;;;;;15.07;7.40;;;7.20;99.90;;;;;;5015348;28;20116;-67
2021/03/17 08:26:22;;;;;;;14.00;7.75;;;7.60;99.90;;;;;;5015373;28;20034;-67
2021/03/17 08:28:53;;;;;;;19.67;8.13;;;7.60;99.90;;;;;;5015334;28;20033;-67
2021/03/17 08:31:37;;;;;;;12.38;7.10;;;7.50;99.90;;;;;;5015475;28;20470;-66
2021/03/17 08:34:22;;;;;;;14.00;7.57;;;7.20;99.90;;;;;;5014807;28;20053;-67
2021/03/17 08:36:53;;;;;;;15.52;6.93;;;7.20;99.90;;;;;;4997314;28;20038;-66
2021/03/17 08:39:33;;;;;;;14.70;6.72;;;7.10;99.90;;;;;;5015241;28;20033;-66
2021/03/17 08:42:01;;;;;;;15.00;7.60;;;7.00;99.90;;;;;;5015175;28;20498;-66
2021/03/17 08:44:48;;;;;;;19.35;7.88;;;7.00;99.90;;;;;;4997667;28;20025;-66
2021/03/17 08:47:28;;;;;;;15.52;7.82;;;6.90;99.90;;;;;;5015076;28;20475;-66
2021/03/17 08:50:19;;;;;;;15.30;7.77;;;7.00;99.90;;;;;;5014939;28;20029;-66
2021/03/17 08:52:57;;;;;;;18.65;8.40;;;7.00;99.90;;;;;;5002599;28;20645;-71
2021/03/17 08:55:39;;;;;;;19.00;7.63;;;6.90;99.90;;;;;;5016848;28;20030;-66
2021/03/17 08:58:09;;;;;;;15.55;7.30;;;6.90;99.90;;;;;;5014665;28;20037;-67
2021/03/17 09:00:59;;;;;;;14.93;7.53;;;6.70;99.90;;;;;;5013688;28;20456;-67
2021/03/17 09:03:32;;;;;;;16.05;8.20;;;6.60;99.90;;;;;;5014350;28;20033;-67
2021/03/17 09:06:27;;;;;;;18.35;8.15;;;6.50;99.90;;;;;;5014828;28;20034;-66
2021/03/17 09:09:15;;;;;;;16.13;7.70;;;6.40;99.90;;;;;;4997377;28;20100;-66
2021/03/17 09:11:40;;;;;;;16.70;7.63;;;6.30;99.90;;;;;;4996695;28;20414;-67
2021/03/17 09:14:08;;;;;;;12.35;7.05;;;6.40;99.90;;;;;;5014296;28;20045;-65
2021/03/17 09:16:56;;;;;;;18.95;7.55;;;6.50;99.90;;;;;;5013928;28;20104;-65
2021/03/17 09:19:22;;;;;;;26.30;7.55;;;6.40;99.90;;;;;;4996436;28;20109;-66
2021/03/17 09:21:47;;;;;;;15.00;7.25;;;6.20;99.90;;;;;;4980650;28;20184;-67
2021/03/17 09:24:34;;;;;;;24.58;7.95;;;5.80;99.90;;;;;;5014026;28;20080;-67
2021/03/17 09:27:06;;;;;;;21.65;8.30;;;5.70;99.90;;;;;;4996901;28;20048;-66
2021/03/17 09:29:34;;;;;;;17.08;7.50;;;5.70;99.90;;;;;;5014343;28;20080;-67
2021/03/17 09:32:00;;;;;;;17.52;8.23;;;5.60;99.90;;;;;;4980672;28;20092;-68
2021/03/17 09:34:32;;;;;;;17.65;7.07;;;5.70;99.90;;;;;;4996089;28;20057;-67
2021/03/17 09:37:06;;;;;;;16.52;8.88;;;5.60;99.90;;;;;;5013563;28;20498;-67
2021/03/17 09:39:46;;;;;;;18.70;7.90;;;5.60;99.90;;;;;;4996736;28;20121;-66
2021/03/17 09:42:17;;;;;;;21.95;10.55;;;5.40;99.90;;;;;;5013684;28;20423;-67
2021/03/17 09:44:43;;;;;;;16.88;8.13;;;5.20;99.90;;;;;;5014197;28;20478;-68
2021/03/17 09:47:08;;;;;;;16.23;8.00;;;5.00;99.90;;;;;;5013771;28;20055;-67
2021/03/17 09:49:36;;;;;;;21.30;8.95;;;5.10;99.90;;;;;;5014173;28;20026;-66
2021/03/17 09:52:03;;;;;;;16.45;8.30;;;5.20;99.90;;;;;;5013860;28;20390;-67
2021/03/17 09:54:32;;;;;;;18.10;8.40;;;5.20;99.90;;;;;;5013675;28;20054;-67
2021/03/17 09:57:01;;;;;;;17.33;7.55;;;5.20;99.90;;;;;;4996393;28;20041;-66
2021/03/17 09:59:41;;;;;;;16.13;8.32;;;5.20;99.90;;;;;;5013484;28;20030;-67
2021/03/17 10:02:10;;;;;;;14.65;8.05;;;5.20;99.90;;;;;;5013877;28;20037;-67
2021/03/17 10:04:48;;;;;;;13.82;7.68;;;5.30;99.90;;;;;;5013763;28;20030;-67
2021/03/17 10:07:33;;;;;;;13.82;6.88;;;5.40;99.90;;;;;;5013546;28;20122;-67
2021/03/17 10:09:59;;;;;;;20.58;7.75;;;5.60;99.90;;;;;;5013809;28;20037;-67
2021/03/17 10:12:31;;;;;;;13.68;6.35;;;5.60;99.90;;;;;;5013394;28;20467;-67
2021/03/17 10:15:22;;;;;;;16.30;7.10;;;6.10;99.90;;;;;;5013477;28;20030;-66
2021/03/17 10:17:50;;;;;;;15.57;7.05;;;6.50;99.90;;;;;;4980014;28;20038;-66
2021/03/17 10:20:22;;;;;;;13.32;7.00;;;6.70;99.90;;;;;;5013390;28;20030;-67
2021/03/17 10:22:50;;;;;;;13.70;6.97;;;6.80;99.90;;;;;;5013302;28;20034;-65
2021/03/17 10:25:22;;;;;;;14.43;7.18;;;6.90;99.90;;;;;;4995455;28;20030;-65
2021/03/17 10:27:58;;;;;;;11.13;5.72;;;6.90;99.90;;;;;;5013214;28;20112;-68
2021/03/17 10:30:34;;;;;;;16.23;5.75;;;6.70;99.90;;;;;;5013298;28;20061;-66
2021/03/17 10:33:01;;;;;;;10.27;5.13;;;6.60;99.90;;;;;;4995230;28;20030;-67
2021/03/17 10:35:32;;;;;;;12.52;4.97;;;6.30;99.90;;;;;;5012739;28;20406;-68
2021/03/17 10:38:00;;;;;;;14.02;5.57;;;6.20;99.90;;;;;;4995614;28;20506;-68
2021/03/17 10:40:28;;;;;;;8.75;5.25;;;6.00;99.90;;;;;;5012776;28;20045;-68
2021/03/17 10:43:05;;;;;;;10.13;4.25;;;5.60;99.90;;;;;;5013103;28;20026;-69
2021/03/17 10:45:41;;;;;;;9.98;5.30;;;5.50;99.90;;;;;;5012951;28;20120;-68
2021/03/17 10:48:26;;;;;;;13.98;4.97;;;5.40;99.90;;;;;;4995367;28;20037;-68
2021/03/17 10:50:54;;;;;;;10.45;5.22;;;5.50;99.90;;;;;;5009787;28;20049;-66
2021/03/17 10:53:22;;;;;;;12.30;5.75;;;5.60;99.90;;;;;;5012439;28;20105;-68
2021/03/17 10:55:50;;;;;;;11.07;5.47;;;5.70;99.90;;;;;;5015448;28;20034;-68
2021/03/17 10:58:22;;;;;;;23.15;11.13;;;6.10;99.90;;;;;;5012595;28;20030;-68
2021/03/17 11:00:52;;;;;;;10.13;5.30;;;6.20;99.90;;;;;;5012914;28;20117;-68
2021/03/17 11:03:28;;;;;;;9.00;4.90;;;6.60;99.90;;;;;;4994631;28;20064;-68
2021/03/17 11:06:29;;;;;;;11.70;5.53;;;6.80;99.90;;;;;;5012804;28;20117;-67
2021/03/17 11:09:01;;;;;;;11.00;5.45;;;7.20;99.90;;;;;;4932882;29;20114;-67
2021/03/17 11:11:27;;;;;;;13.48;6.55;;;6.60;99.90;;;;;;4999040;28;20436;-68
2021/03/17 11:13:53;;;;;;;11.60;6.15;;;6.70;99.90;;;;;;5012582;28;20463;-68
2021/03/17 11:16:30;;;;;;;12.07;6.45;;;7.20;99.90;;;;;;5012394;28;20025;-68
2021/03/17 11:19:01;;;;;;;14.70;7.63;;;7.30;99.90;;;;;;5012568;28;20026;-68
2021/03/17 11:21:33;;;;;;;15.43;7.55;;;6.80;99.90;;;;;;5012485;28;20030;-68
2021/03/17 11:24:03;;;;;;;12.70;6.13;;;6.60;99.90;;;;;;4999362;28;20479;-68
2021/03/17 11:26:31;;;;;;;11.10;6.00;;;6.70;99.90;;;;;;5018551;28;20037;-68
2021/03/17 11:29:10;;;;;;;13.32;6.00;;;6.60;99.90;;;;;;5018883;28;20054;-68
2021/03/17 11:31:36;;;;;;;11.70;5.25;;;6.80;99.90;;;;;;5018746;28;20482;-68
2021/03/17 11:34:03;;;;;;;7.57;3.97;;;7.00;99.90;;;;;;5018491;28;20053;-68
2021/03/17 11:36:30;;;;;;;7.90;4.20;;;7.20;99.90;;;;;;5018914;28;20072;-68
2021/03/17 11:38:58;;;;;;;7.32;3.85;;;7.60;99.90;;;;;;5001419;28;20045;-66
2021/03/17 11:41:26;;;;;;;7.57;4.38;;;8.10;99.90;;;;;;5018991;28;20104;-67
2021/03/17 11:43:53;;;;;;;9.85;4.43;;;8.60;99.90;;;;;;5018672;28;20382;-67
2021/03/17 11:46:19;;;;;;;4.97;3.08;;;9.30;99.90;;;;;;5018802;28;20455;-67
2021/03/17 11:48:46;;;;;;;5.85;3.50;;;9.90;99.90;;;;;;5018850;28;20030;-67
2021/03/17 11:51:14;;;;;;;8.57;4.47;;;10.80;99.90;;;;;;5018609;28;20030;-66
2021/03/17 11:53:40;;;;;;;5.60;3.50;;;10.80;99.90;;;;;;5018740;28;20026;-66
2021/03/17 11:56:07;;;;;;;4.40;2.75;;;10.70;99.90;;;;;;5001316;28;20439;-67
2021/03/17 11:58:35;;;;;;;4.00;2.30;;;11.20;99.90;;;;;;5018346;28;20030;-66
2021/03/17 12:01:02;;;;;;;3.72;2.55;;;11.50;99.90;;;;;;5018593;28;20475;-60
2021/03/17 12:03:29;;;;;;;6.07;2.60;;;11.60;99.90;;;;;;5018619;28;20046;-57
2021/03/17 12:05:55;;;;;;;3.63;2.13;;;11.50;99.90;;;;;;5018331;28;20391;-67
2021/03/17 12:08:21;;;;;;;3.75;2.20;;;12.30;99.90;;;;;;5015794;28;20505;-68
2021/03/17 12:10:49;;;;;;;5.55;2.10;;;13.10;98.60;;;;;;5018433;28;20424;-66
2021/03/17 12:13:16;;;;;;;2.83;1.65;;;12.10;99.90;;;;;;5018678;28;20030;-67
2021/03/17 12:15:42;;;;;;;2.78;1.40;;;12.30;99.90;;;;;;5018192;28;20487;-67
2021/03/17 12:18:08;;;;;;;2.70;1.30;;;12.20;98.00;;;;;;5018417;28;20049;-67
2021/03/17 12:20:34;;;;;;;2.13;1.13;;;12.50;98.20;;;;;;5018476;28;20514;-67
2021/03/17 12:23:01;;;;;;;1.90;1.20;;;13.60;94.90;;;;;;5018483;28;20044;-67
2021/03/17 12:25:28;;;;;;;2.78;1.10;;;13.50;92.40;;;;;;5000483;28;20037;-67
2021/03/17 12:27:54;;;;;;;3.50;1.10;;;14.20;92.60;;;;;;5018491;28;20034;-67
2021/03/17 12:30:21;;;;;;;2.35;1.00;;;14.70;86.30;;;;;;5018278;28;20033;-67
2021/03/17 12:32:49;;;;;;;2.90;1.65;;;13.90;90.90;;;;;;5000664;28;20045;-67
2021/03/17 12:35:18;;;;;;;5.53;2.10;;;11.60;99.70;;;;;;5014908;28;20050;-66
2021/03/17 12:37:47;;;;;;;3.90;2.20;;;7.80;99.90;;;;;;5015286;28;20041;-67
2021/03/17 12:40:17;;;;;;;4.40;1.83;;;7.60;99.90;;;;;;5015311;28;20075;-67
2021/03/17 12:42:43;;;;;;;5.93;1.80;;;7.50;99.90;;;;;;5015144;28;20033;-68
2021/03/17 12:45:12;;;;;;;4.45;2.42;;;7.20;99.90;;;;;;4997451;28;20504;-68
2021/03/17 12:47:39;;;;;;;51.75;27.45;;;6.90;99.90;;;;;;5015093;28;20471;-67
2021/03/17 12:50:11;;;;;;;4.00;2.53;;;6.20;99.90;;;;;;5026468;28;20120;-67
2021/03/17 12:52:37;;;;;;;4.72;2.22;;;6.10;99.90;;;;;;5034919;28;20030;-68
2021/03/17 12:55:05;;;;;;;5.05;2.60;;;5.70;99.90;;;;;;5034542;28;20033;-68
2021/03/17 12:57:31;;;;;;;4.97;3.00;;;5.70;99.90;;;;;;5034465;28;20030;-68
2021/03/17 12:59:58;;;;;;;4.78;2.20;;;5.70;99.90;;;;;;5016961;28;20045;-67
2021/03/17 13:02:25;;;;;;;58.22;23.75;;;5.20;99.90;;;;;;5034497;28;20036;-68
2021/03/17 13:04:54;;;;;;;9.88;4.97;;;5.20;99.90;;;;;;5034593;28;20033;-68
2021/03/17 13:07:21;;;;;;;5.05;3.13;;;5.00;99.90;;;;;;5016812;28;20025;-68